sensor_id;sensor_type;location;lat;lon;timestamp;pressure;altitude;pressure_sealevel;temperature;humidity
86138;BME280;76796;49.056;15.810;2024-03-02T00:02:06;95868.94;;;7.70;92.93
86138;BME280;76796;49.056;15.810;2024-03-02T00:04:31;95877.91;;;7.58;92.94
86138;BME280;76796;49.056;15.810;2024-03-02T00:07:04;95872.66;;;7.58;93.12
86138;BME280;76796;49.056;15.810;2024-03-02T00:09:29;95879.97;;;7.54;93.05
86138;BME280;76796;49.056;15.810;2024-03-02T00:11:55;95873.78;;;7.65;93.15
86138;BME280;76796;49.056;15.810;2024-03-02T00:14:21;95876.69;;;7.62;92.67
86138;BME280;76796;49.056;15.810;2024-03-02T00:16:46;95876.69;;;7.71;92.13
86138;BME280;76796;49.056;15.810;2024-03-02T00:19:12;95871.03;;;7.76;91.74
86138;BME280;76796;49.056;15.810;2024-03-02T00:21:38;95873.13;;;7.82;91.54
86138;BME280;76796;49.056;15.810;2024-03-02T00:24:32;95866.75;;;7.75;91.63
86138;BME280;76796;49.056;15.810;2024-03-02T00:26:59;95867.84;;;7.82;91.21
86138;BME280;76796;49.056;15.810;2024-03-02T00:29:25;95866.19;;;7.81;91.07
86138;BME280;76796;49.056;15.810;2024-03-02T00:31:52;95867.59;;;7.85;91.19
86138;BME280;76796;49.056;15.810;2024-03-02T00:34:18;95872.56;;;7.88;90.78
86138;BME280;76796;49.056;15.810;2024-03-02T00:36:44;95868.13;;;7.79;91.28
86138;BME280;76796;49.056;15.810;2024-03-02T00:39:18;95866.47;;;7.78;91.50
86138;BME280;76796;49.056;15.810;2024-03-02T00:41:43;95864.81;;;7.77;91.54
86138;BME280;76796;49.056;15.810;2024-03-02T00:44:12;95866.22;;;7.91;90.99
86138;BME280;76796;49.056;15.810;2024-03-02T00:46:42;95871.50;;;8.00;90.57
86138;BME280;76796;49.056;15.810;2024-03-02T00:49:22;95868.19;;;8.08;90.55
86138;BME280;76796;49.056;15.810;2024-03-02T00:51:50;95883.28;;;7.96;90.32
86138;BME280;76796;49.056;15.810;2024-03-02T00:54:19;95865.94;;;7.94;90.06
86138;BME280;76796;49.056;15.810;2024-03-02T00:56:52;95864.81;;;7.87;90.52
86138;BME280;76796;49.056;15.810;2024-03-02T00:59:24;95866.06;;;7.73;91.30
86138;BME280;76796;49.056;15.810;2024-03-02T01:01:49;95871.19;;;7.74;91.22
86138;BME280;76796;49.056;15.810;2024-03-02T01:04:16;95875.72;;;7.63;91.71
86138;BME280;76796;49.056;15.810;2024-03-02T01:06:44;95865.03;;;7.64;91.54
86138;BME280;76796;49.056;15.810;2024-03-02T01:09:10;95871.00;;;7.57;91.79
86138;BME280;76796;49.056;15.810;2024-03-02T01:11:37;95872.81;;;7.66;91.45
86138;BME280;76796;49.056;15.810;2024-03-02T01:14:09;95874.50;;;7.76;91.21
86138;BME280;76796;49.056;15.810;2024-03-02T01:16:34;95865.50;;;7.79;90.89
86138;BME280;76796;49.056;15.810;2024-03-02T01:19:00;95867.53;;;7.66;91.33
86138;BME280;76796;49.056;15.810;2024-03-02T01:21:25;95861.03;;;7.70;91.16
86138;BME280;76796;49.056;15.810;2024-03-02T01:23:51;95864.47;;;7.61;91.54
86138;BME280;76796;49.056;15.810;2024-03-02T01:26:16;95868.88;;;7.50;92.04
86138;BME280;76796;49.056;15.810;2024-03-02T01:28:42;95859.31;;;7.49;91.96
86138;BME280;76796;49.056;15.810;2024-03-02T01:31:14;95851.66;;;7.46;92.34
86138;BME280;76796;49.056;15.810;2024-03-02T01:33:39;95850.66;;;7.38;92.62
86138;BME280;76796;49.056;15.810;2024-03-02T01:36:05;95852.63;;;7.45;92.48
86138;BME280;76796;49.056;15.810;2024-03-02T01:38:30;95849.59;;;7.50;91.93
86138;BME280;76796;49.056;15.810;2024-03-02T01:40:56;95836.56;;;7.48;92.24
86138;BME280;76796;49.056;15.810;2024-03-02T01:43:22;95841.56;;;7.51;92.33
86138;BME280;76796;49.056;15.810;2024-03-02T01:45:47;95842.53;;;7.50;92.25
86138;BME280;76796;49.056;15.810;2024-03-02T01:48:20;95842.94;;;7.55;91.78
86138;BME280;76796;49.056;15.810;2024-03-02T01:50:45;95838.78;;;7.43;91.93
86138;BME280;76796;49.056;15.810;2024-03-02T01:53:11;95832.00;;;7.50;92.11
86138;BME280;76796;49.056;15.810;2024-03-02T01:55:44;95828.25;;;7.43;92.44
86138;BME280;76796;49.056;15.810;2024-03-02T01:58:24;95827.78;;;7.38;92.59
86138;BME280;76796;49.056;15.810;2024-03-02T02:00:49;95821.88;;;7.46;92.22
86138;BME280;76796;49.056;15.810;2024-03-02T02:03:15;95832.81;;;7.51;92.12
86138;BME280;76796;49.056;15.810;2024-03-02T02:05:48;95826.72;;;7.50;92.05
86138;BME280;76796;49.056;15.810;2024-03-02T02:08:13;95823.97;;;7.52;92.12
86138;BME280;76796;49.056;15.810;2024-03-02T02:10:39;95822.56;;;7.48;92.06
86138;BME280;76796;49.056;15.810;2024-03-02T02:13:04;95827.09;;;7.36;92.30
86138;BME280;76796;49.056;15.810;2024-03-02T02:15:30;95824.47;;;7.36;92.34
86138;BME280;76796;49.056;15.810;2024-03-02T02:17:58;95828.25;;;7.43;92.51
86138;BME280;76796;49.056;15.810;2024-03-02T02:20:24;95822.44;;;7.49;92.16
86138;BME280;76796;49.056;15.810;2024-03-02T02:23:04;95823.41;;;7.48;91.80
86138;BME280;76796;49.056;15.810;2024-03-02T02:25:30;95822.16;;;7.52;91.66
86138;BME280;76796;49.056;15.810;2024-03-02T02:27:57;95831.47;;;7.57;91.68
86138;BME280;76796;49.056;15.810;2024-03-02T02:30:25;95820.22;;;7.54;91.36
86138;BME280;76796;49.056;15.810;2024-03-02T02:32:50;95816.88;;;7.52;91.41
86138;BME280;76796;49.056;15.810;2024-03-02T02:35:16;95818.56;;;7.53;91.58
86138;BME280;76796;49.056;15.810;2024-03-02T02:37:42;95823.41;;;7.48;91.64
86138;BME280;76796;49.056;15.810;2024-03-02T02:40:15;95824.63;;;7.44;91.80
86138;BME280;76796;49.056;15.810;2024-03-02T02:42:41;95827.28;;;7.54;91.60
86138;BME280;76796;49.056;15.810;2024-03-02T02:45:07;95838.66;;;7.54;91.68
86138;BME280;76796;49.056;15.810;2024-03-02T02:47:32;95825.91;;;7.50;91.68
86138;BME280;76796;49.056;15.810;2024-03-02T02:50:01;95831.72;;;7.44;91.82
86138;BME280;76796;49.056;15.810;2024-03-02T02:52:37;95839.47;;;7.45;91.71
86138;BME280;76796;49.056;15.810;2024-03-02T02:55:05;95830.59;;;7.46;91.52
86138;BME280;76796;49.056;15.810;2024-03-02T02:57:45;95832.22;;;7.38;91.56
86138;BME280;76796;49.056;15.810;2024-03-02T03:00:15;95826.31;;;7.45;91.31
86138;BME280;76796;49.056;15.810;2024-03-02T03:02:42;95831.66;;;7.34;91.54
86138;BME280;76796;49.056;15.810;2024-03-02T03:05:09;95832.72;;;7.22;91.97
86138;BME280;76796;49.056;15.810;2024-03-02T03:07:35;95834.13;;;7.26;92.33
86138;BME280;76796;49.056;15.810;2024-03-02T03:10:03;95828.59;;;7.29;91.96
86138;BME280;76796;49.056;15.810;2024-03-02T03:12:33;95835.94;;;7.26;92.33
86138;BME280;76796;49.056;15.810;2024-03-02T03:15:05;95828.31;;;7.22;92.25
86138;BME280;76796;49.056;15.810;2024-03-02T03:17:32;95822.38;;;7.30;92.13
86138;BME280;76796;49.056;15.810;2024-03-02T03:19:57;95825.28;;;7.27;92.36
86138;BME280;76796;49.056;15.810;2024-03-02T03:22:23;95818.91;;;7.30;91.98
86138;BME280;76796;49.056;15.810;2024-03-02T03:24:48;95823.59;;;7.26;91.60
86138;BME280;76796;49.056;15.810;2024-03-02T03:27:14;95812.25;;;7.26;91.84
86138;BME280;76796;49.056;15.810;2024-03-02T03:29:39;95815.38;;;7.19;91.88
86138;BME280;76796;49.056;15.810;2024-03-02T03:32:12;95815.31;;;7.31;92.01
86138;BME280;76796;49.056;15.810;2024-03-02T03:34:37;95817.78;;;7.32;91.54
86138;BME280;76796;49.056;15.810;2024-03-02T03:37:03;95818.81;;;7.41;91.31
86138;BME280;76796;49.056;15.810;2024-03-02T03:39:29;95817.53;;;7.35;91.49
86138;BME280;76796;49.056;15.810;2024-03-02T03:41:54;95815.56;;;7.28;91.38
86138;BME280;76796;49.056;15.810;2024-03-02T03:44:20;95824.72;;;7.33;91.56
86138;BME280;76796;49.056;15.810;2024-03-02T03:46:46;95821.13;;;7.34;91.25
86138;BME280;76796;49.056;15.810;2024-03-02T03:49:18;95823.63;;;7.36;91.33
86138;BME280;76796;49.056;15.810;2024-03-02T03:51:43;95829.69;;;7.27;91.32
86138;BME280;76796;49.056;15.810;2024-03-02T03:54:09;95827.22;;;7.25;91.43
86138;BME280;76796;49.056;15.810;2024-03-02T03:56:36;95819.44;;;7.23;91.14
86138;BME280;76796;49.056;15.810;2024-03-02T03:59:10;95820.09;;;7.16;91.42
86138;BME280;76796;49.056;15.810;2024-03-02T04:01:35;95818.84;;;7.20;91.55
86138;BME280;76796;49.056;15.810;2024-03-02T04:04:02;95820.50;;;7.21;91.34
86138;BME280;76796;49.056;15.810;2024-03-02T04:06:35;95823.16;;;7.21;91.20
86138;BME280;76796;49.056;15.810;2024-03-02T04:09:00;95821.63;;;7.18;91.40
86138;BME280;76796;49.056;15.810;2024-03-02T04:11:27;95828.00;;;7.16;91.70
86138;BME280;76796;49.056;15.810;2024-03-02T04:13:52;95838.09;;;7.11;91.95
86138;BME280;76796;49.056;15.810;2024-03-02T04:16:18;95837.94;;;7.12;91.55
86138;BME280;76796;49.056;15.810;2024-03-02T04:18:43;95828.00;;;7.16;91.64
86138;BME280;76796;49.056;15.810;2024-03-02T04:21:09;95832.84;;;7.20;91.46
86138;BME280;76796;49.056;15.810;2024-03-02T04:23:41;95836.44;;;7.19;91.23
86138;BME280;76796;49.056;15.810;2024-03-02T04:26:06;95828.41;;;7.21;91.31
86138;BME280;76796;49.056;15.810;2024-03-02T04:28:32;95841.00;;;7.17;91.06
86138;BME280;76796;49.056;15.810;2024-03-02T04:30:58;95838.78;;;7.13;91.11
86138;BME280;76796;49.056;15.810;2024-03-02T04:33:23;95834.06;;;7.07;91.41
86138;BME280;76796;49.056;15.810;2024-03-02T04:35:49;95838.78;;;7.13;91.26
86138;BME280;76796;49.056;15.810;2024-03-02T04:38:14;95846.25;;;7.08;91.32
86138;BME280;76796;49.056;15.810;2024-03-02T04:40:46;95852.63;;;7.15;90.73
86138;BME280;76796;49.056;15.810;2024-03-02T04:43:11;95849.88;;;7.16;90.80
86138;BME280;76796;49.056;15.810;2024-03-02T04:45:40;95840.97;;;7.08;90.61
86138;BME280;76796;49.056;15.810;2024-03-02T04:48:06;95848.13;;;6.96;91.27
86138;BME280;76796;49.056;15.810;2024-03-02T04:50:33;95851.31;;;7.00;91.30
86138;BME280;76796;49.056;15.810;2024-03-02T04:52:58;95846.44;;;6.95;91.46
86138;BME280;76796;49.056;15.810;2024-03-02T04:55:23;95843.16;;;7.03;91.39
86138;BME280;76796;49.056;15.810;2024-03-02T04:58:18;95850.09;;;7.04;91.28
86138;BME280;76796;49.056;15.810;2024-03-02T05:00:43;95853.88;;;7.11;91.12
86138;BME280;76796;49.056;15.810;2024-03-02T05:03:11;95853.44;;;7.06;91.10
86138;BME280;76796;49.056;15.810;2024-03-02T05:05:37;95858.94;;;7.03;91.03
86138;BME280;76796;49.056;15.810;2024-03-02T05:08:04;95858.72;;;7.06;91.02
86138;BME280;76796;49.056;15.810;2024-03-02T05:10:29;95860.66;;;7.13;90.82
86138;BME280;76796;49.056;15.810;2024-03-02T05:12:55;95862.03;;;7.08;91.15
86138;BME280;76796;49.056;15.810;2024-03-02T05:15:31;95859.91;;;7.02;90.84
86138;BME280;76796;49.056;15.810;2024-03-02T05:17:57;95861.72;;;7.01;91.41
86138;BME280;76796;49.056;15.810;2024-03-02T05:20:23;95864.03;;;6.94;91.86
86138;BME280;76796;49.056;15.810;2024-03-02T05:22:48;95856.84;;;6.97;91.83
86138;BME280;76796;49.056;15.810;2024-03-02T05:25:15;95852.97;;;7.01;91.54
86138;BME280;76796;49.056;15.810;2024-03-02T05:27:40;95860.03;;;7.00;91.70
86138;BME280;76796;49.056;15.810;2024-03-02T05:30:06;95861.22;;;7.07;91.15
86138;BME280;76796;49.056;15.810;2024-03-02T05:32:39;95866.41;;;6.98;91.39
86138;BME280;76796;49.056;15.810;2024-03-02T05:35:05;95872.19;;;6.91;91.95
86138;BME280;76796;49.056;15.810;2024-03-02T05:37:30;95876.66;;;7.01;91.76
86138;BME280;76796;49.056;15.810;2024-03-02T05:39:56;95874.13;;;6.89;92.06
86138;BME280;76796;49.056;15.810;2024-03-02T05:42:21;95881.75;;;6.92;91.94
86138;BME280;76796;49.056;15.810;2024-03-02T05:44:47;95893.72;;;6.85;91.62
86138;BME280;76796;49.056;15.810;2024-03-02T05:47:12;95892.00;;;6.96;91.63
86138;BME280;76796;49.056;15.810;2024-03-02T05:49:45;95902.09;;;6.90;91.75
86138;BME280;76796;49.056;15.810;2024-03-02T05:52:10;95913.13;;;6.84;91.69
86138;BME280;76796;49.056;15.810;2024-03-02T05:54:37;95914.72;;;6.76;91.76
86138;BME280;76796;49.056;15.810;2024-03-02T05:57:02;95927.09;;;6.64;92.28
86138;BME280;76796;49.056;15.810;2024-03-02T05:59:53;95929.22;;;6.70;92.23
86138;BME280;76796;49.056;15.810;2024-03-02T06:02:19;95926.34;;;6.73;91.83
86138;BME280;76796;49.056;15.810;2024-03-02T06:04:45;95918.63;;;6.81;91.40
86138;BME280;76796;49.056;15.810;2024-03-02T06:07:17;95917.41;;;6.85;91.04
86138;BME280;76796;49.056;15.810;2024-03-02T06:09:42;95912.50;;;6.92;90.84
86138;BME280;76796;49.056;15.810;2024-03-02T06:12:09;95908.44;;;6.88;91.47
86138;BME280;76796;49.056;15.810;2024-03-02T06:14:35;95910.44;;;6.96;91.10
86138;BME280;76796;49.056;15.810;2024-03-02T06:17:00;95910.44;;;6.96;91.19
86138;BME280;76796;49.056;15.810;2024-03-02T06:19:33;95906.63;;;6.88;90.97
86138;BME280;76796;49.056;15.810;2024-03-02T06:21:58;95899.69;;;6.87;91.01
86138;BME280;76796;49.056;15.810;2024-03-02T06:24:31;95903.25;;;6.98;91.11
86138;BME280;76796;49.056;15.810;2024-03-02T06:26:56;95897.00;;;6.99;90.44
86138;BME280;76796;49.056;15.810;2024-03-02T06:29:22;95908.50;;;6.98;90.77
86138;BME280;76796;49.056;15.810;2024-03-02T06:31:48;95901.31;;;7.00;90.58
86138;BME280;76796;49.056;15.810;2024-03-02T06:34:13;95899.91;;;6.96;90.38
86138;BME280;76796;49.056;15.810;2024-03-02T06:36:39;95901.84;;;6.93;90.80
86138;BME280;76796;49.056;15.810;2024-03-02T06:39:05;95897.66;;;6.91;90.65
86138;BME280;76796;49.056;15.810;2024-03-02T06:41:37;95898.94;;;6.97;90.54
86138;BME280;76796;49.056;15.810;2024-03-02T06:44:02;95899.91;;;6.96;89.87
86138;BME280;76796;49.056;15.810;2024-03-02T06:46:28;95894.78;;;6.94;89.70
86138;BME280;76796;49.056;15.810;2024-03-02T06:48:54;95907.81;;;6.96;89.74
86138;BME280;76796;49.056;15.810;2024-03-02T06:51:20;95896.31;;;6.97;89.92
86138;BME280;76796;49.056;15.810;2024-03-02T06:53:45;95900.31;;;6.91;90.29
86138;BME280;76796;49.056;15.810;2024-03-02T06:56:12;95891.44;;;6.92;89.87
86138;BME280;76796;49.056;15.810;2024-03-02T06:58:44;95900.94;;;6.83;90.28
86138;BME280;76796;49.056;15.810;2024-03-02T07:01:10;95903.28;;;6.86;90.05
86138;BME280;76796;49.056;15.810;2024-03-02T07:03:35;95903.91;;;6.90;90.20
86138;BME280;76796;49.056;15.810;2024-03-02T07:06:01;95904.00;;;6.88;90.14
86138;BME280;76796;49.056;15.810;2024-03-02T07:08:27;95919.34;;;6.83;90.15
86138;BME280;76796;49.056;15.810;2024-03-02T07:10:52;95915.88;;;6.83;89.90
86138;BME280;76796;49.056;15.810;2024-03-02T07:13:18;95911.72;;;6.80;90.03
86138;BME280;76796;49.056;15.810;2024-03-02T07:15:50;95915.88;;;6.83;90.21
86138;BME280;76796;49.056;15.810;2024-03-02T07:18:27;95915.63;;;6.86;90.23
86138;BME280;76796;49.056;15.810;2024-03-02T07:20:53;95911.19;;;6.86;90.21
86138;BME280;76796;49.056;15.810;2024-03-02T07:23:18;95913.63;;;6.78;90.31
86138;BME280;76796;49.056;15.810;2024-03-02T07:25:45;95911.56;;;6.82;90.56
86138;BME280;76796;49.056;15.810;2024-03-02T07:28:11;95910.22;;;6.87;90.26
86138;BME280;76796;49.056;15.810;2024-03-02T07:30:36;95913.69;;;6.88;90.17
86138;BME280;76796;49.056;15.810;2024-03-02T07:33:10;95917.63;;;6.93;90.25
86138;BME280;76796;49.056;15.810;2024-03-02T07:35:36;95917.63;;;6.93;90.10
86138;BME280;76796;49.056;15.810;2024-03-02T07:38:01;95916.91;;;6.91;89.56
86138;BME280;76796;49.056;15.810;2024-03-02T07:40:27;95927.63;;;6.79;89.51
86138;BME280;76796;49.056;15.810;2024-03-02T07:42:52;95923.16;;;6.90;89.27
86138;BME280;76796;49.056;15.810;2024-03-02T07:45:18;95937.84;;;6.93;89.48
86138;BME280;76796;49.056;15.810;2024-03-02T07:47:44;95923.47;;;6.97;89.14
86138;BME280;76796;49.056;15.810;2024-03-02T07:50:16;95927.31;;;6.93;89.37
86138;BME280;76796;49.056;15.810;2024-03-02T07:52:41;95927.75;;;6.98;89.80
86138;BME280;76796;49.056;15.810;2024-03-02T07:55:07;95931.34;;;6.97;89.67
86138;BME280;76796;49.056;15.810;2024-03-02T07:57:40;95925.44;;;7.05;89.74
86138;BME280;76796;49.056;15.810;2024-03-02T08:00:06;95933.53;;;7.13;89.44
86138;BME280;76796;49.056;15.810;2024-03-02T08:02:31;95933.28;;;7.16;90.04
86138;BME280;76796;49.056;15.810;2024-03-02T08:04:57;95938.13;;;7.20;89.80
86138;BME280;76796;49.056;15.810;2024-03-02T08:07:29;95934.63;;;7.10;90.00
86138;BME280;76796;49.056;15.810;2024-03-02T08:09:55;95930.19;;;7.11;90.30
86138;BME280;76796;49.056;15.810;2024-03-02T08:12:20;95936.44;;;7.10;90.24
86138;BME280;76796;49.056;15.810;2024-03-02T08:14:48;95932.69;;;7.12;89.76
86138;BME280;76796;49.056;15.810;2024-03-02T08:17:14;95943.22;;;7.12;89.29
86138;BME280;76796;49.056;15.810;2024-03-02T08:19:40;95948.19;;;7.06;89.57
86138;BME280;76796;49.056;15.810;2024-03-02T08:22:06;95950.09;;;7.04;89.38
86138;BME280;76796;49.056;15.810;2024-03-02T08:24:38;95951.00;;;7.14;89.26
86138;BME280;76796;49.056;15.810;2024-03-02T08:27:04;95960.75;;;7.23;88.76
86138;BME280;76796;49.056;15.810;2024-03-02T08:29:29;95946.56;;;7.14;88.76
86138;BME280;76796;49.056;15.810;2024-03-02T08:31:55;95945.47;;;7.17;89.14
86138;BME280;76796;49.056;15.810;2024-03-02T08:34:20;95947.97;;;7.18;89.13
86138;BME280;76796;49.056;15.810;2024-03-02T08:36:46;95949.75;;;7.18;88.98
86138;BME280;76796;49.056;15.810;2024-03-02T08:39:12;95947.13;;;7.18;89.01
86138;BME280;76796;49.056;15.810;2024-03-02T08:41:47;95946.03;;;7.20;88.35
86138;BME280;76796;49.056;15.810;2024-03-02T08:44:14;95941.09;;;7.27;88.85
86138;BME280;76796;49.056;15.810;2024-03-02T08:46:40;95949.28;;;7.24;88.99
86138;BME280;76796;49.056;15.810;2024-03-02T08:49:06;95946.94;;;7.31;89.44
86138;BME280;76796;49.056;15.810;2024-03-02T08:51:31;95942.44;;;7.42;89.25
86138;BME280;76796;49.056;15.810;2024-03-02T08:53:57;95944.47;;;7.39;88.65
86138;BME280;76796;49.056;15.810;2024-03-02T08:56:24;95950.59;;;7.39;88.32
86138;BME280;76796;49.056;15.810;2024-03-02T08:58:56;95952.50;;;7.37;88.44
86138;BME280;76796;49.056;15.810;2024-03-02T09:01:22;95947.56;;;7.44;88.33
86138;BME280;76796;49.056;15.810;2024-03-02T09:03:48;95946.03;;;7.41;87.99
86138;BME280;76796;49.056;15.810;2024-03-02T09:06:17;95953.56;;;7.55;88.24
86138;BME280;76796;49.056;15.810;2024-03-02T09:08:43;95953.34;;;7.59;87.89
86138;BME280;76796;49.056;15.810;2024-03-02T09:11:09;95942.59;;;7.50;87.74
86138;BME280;76796;49.056;15.810;2024-03-02T09:13:36;95960.53;;;7.57;87.83
86138;BME280;76796;49.056;15.810;2024-03-02T09:16:08;95948.97;;;7.48;87.76
86138;BME280;76796;49.056;15.810;2024-03-02T09:18:36;95962.22;;;7.58;87.78
86138;BME280;76796;49.056;15.810;2024-03-02T09:21:01;95946.53;;;7.56;87.89
86138;BME280;76796;49.056;15.810;2024-03-02T09:23:28;95950.69;;;7.59;87.27
86138;BME280;76796;49.056;15.810;2024-03-02T09:25:54;95946.28;;;7.69;87.15
86138;BME280;76796;49.056;15.810;2024-03-02T09:28:19;95936.28;;;7.63;86.51
86138;BME280;76796;49.056;15.810;2024-03-02T09:30:45;95945.88;;;7.64;86.90
86138;BME280;76796;49.056;15.810;2024-03-02T09:33:17;95953.56;;;7.55;87.59
86138;BME280;76796;49.056;15.810;2024-03-02T09:35:43;95949.88;;;7.58;87.50
86138;BME280;76796;49.056;15.810;2024-03-02T09:38:08;95953.28;;;7.49;87.85
86138;BME280;76796;49.056;15.810;2024-03-02T09:40:34;95958.59;;;7.59;88.44
86138;BME280;76796;49.056;15.810;2024-03-02T09:42:59;95962.94;;;7.69;88.19
86138;BME280;76796;49.056;15.810;2024-03-02T09:45:26;95958.34;;;7.62;88.07
86138;BME280;76796;49.056;15.810;2024-03-02T09:47:52;95962.78;;;7.61;88.42
86138;BME280;76796;49.056;15.810;2024-03-02T09:50:26;95957.78;;;7.58;88.78
86138;BME280;76796;49.056;15.810;2024-03-02T09:52:53;95960.28;;;7.60;88.99
86138;BME280;76796;49.056;15.810;2024-03-02T09:55:20;95961.25;;;7.59;88.59
86138;BME280;76796;49.056;15.810;2024-03-02T09:57:46;95965.53;;;7.60;89.38
86138;BME280;76796;49.056;15.810;2024-03-02T10:00:18;95969.56;;;7.64;89.65
86138;BME280;76796;49.056;15.810;2024-03-02T10:02:44;95905.66;;;7.31;89.55
86138;BME280;76796;49.056;15.810;2024-03-02T10:05:10;95966.75;;;7.55;89.51
86138;BME280;76796;49.056;15.810;2024-03-02T10:07:59;95958.50;;;7.70;89.72
86138;BME280;76796;49.056;15.810;2024-03-02T10:10:34;95947.66;;;7.63;89.05
86138;BME280;76796;49.056;15.810;2024-03-02T10:13:07;95959.31;;;7.61;88.75
86138;BME280;76796;49.056;15.810;2024-03-02T10:15:34;95958.59;;;7.59;88.30
86138;BME280;76796;49.056;15.810;2024-03-02T10:18:00;95958.25;;;7.73;88.80
86138;BME280;76796;49.056;15.810;2024-03-02T10:20:26;95955.72;;;7.71;88.90
86138;BME280;76796;49.056;15.810;2024-03-02T10:23:10;95958.56;;;7.79;88.99
86138;BME280;76796;49.056;15.810;2024-03-02T10:25:36;95959.09;;;7.73;89.26
86138;BME280;76796;49.056;15.810;2024-03-02T10:28:02;95956.75;;;7.80;89.31
86138;BME280;76796;49.056;15.810;2024-03-02T10:30:30;95955.09;;;7.89;89.21
86138;BME280;76796;49.056;15.810;2024-03-02T10:32:55;95958.28;;;7.82;88.49
86138;BME280;76796;49.056;15.810;2024-03-02T10:35:24;95956.34;;;7.84;88.29
86138;BME280;76796;49.056;15.810;2024-03-02T10:37:51;95960.66;;;7.85;86.84
86138;BME280;76796;49.056;15.810;2024-03-02T10:40:27;95945.53;;;7.88;86.87
86138;BME280;76796;49.056;15.810;2024-03-02T10:42:53;95959.16;;;7.93;86.97
86138;BME280;76796;49.056;15.810;2024-03-02T10:45:20;95951.41;;;8.01;86.64
86138;BME280;76796;49.056;15.810;2024-03-02T10:47:49;95940.31;;;7.97;86.58
86138;BME280;76796;49.056;15.810;2024-03-02T10:50:15;95947.81;;;8.02;86.58
86138;BME280;76796;49.056;15.810;2024-03-02T10:52:41;95945.84;;;8.04;86.52
86138;BME280;76796;49.056;15.810;2024-03-02T10:55:09;95945.94;;;8.23;86.23
86138;BME280;76796;49.056;15.810;2024-03-02T10:57:51;95961.38;;;8.37;85.81
86138;BME280;76796;49.056;15.810;2024-03-02T11:00:30;95943.44;;;8.31;85.15
86138;BME280;76796;49.056;15.810;2024-03-02T11:03:05;95961.50;;;8.36;85.18
86138;BME280;76796;49.056;15.810;2024-03-02T11:05:36;95957.06;;;8.36;85.12
86138;BME280;76796;49.056;15.810;2024-03-02T11:08:08;95956.69;;;8.41;85.01
86138;BME280;76796;49.056;15.810;2024-03-02T11:10:41;95956.28;;;8.46;85.17
86138;BME280;76796;49.056;15.810;2024-03-02T11:13:22;95956.13;;;8.47;84.80
86138;BME280;76796;49.056;15.810;2024-03-02T11:15:53;95953.34;;;8.49;85.03
86138;BME280;76796;49.056;15.810;2024-03-02T11:18:21;95942.53;;;8.42;85.57
86138;BME280;76796;49.056;15.810;2024-03-02T11:20:47;95943.63;;;8.49;85.31
86138;BME280;76796;49.056;15.810;2024-03-02T11:23:13;95945.19;;;8.61;85.10
86138;BME280;76796;49.056;15.810;2024-03-02T11:25:39;95944.03;;;8.54;85.77
86138;BME280;76796;49.056;15.810;2024-03-02T11:28:06;95943.66;;;8.59;86.02
86138;BME280;76796;49.056;15.810;2024-03-02T11:33:07;95943.50;;;8.70;85.57
86138;BME280;76796;49.056;15.810;2024-03-02T11:35:34;95942.97;;;8.76;84.88
86138;BME280;76796;49.056;15.810;2024-03-02T11:38:01;95935.59;;;8.80;85.02
86138;BME280;76796;49.056;15.810;2024-03-02T11:40:28;95942.97;;;8.76;85.02
86138;BME280;76796;49.056;15.810;2024-03-02T11:42:54;95944.63;;;8.77;85.38
86138;BME280;76796;49.056;15.810;2024-03-02T11:45:24;95939.63;;;8.84;85.81
86138;BME280;76796;49.056;15.810;2024-03-02T11:48:00;95931.56;;;8.85;86.03
86138;BME280;76796;49.056;15.810;2024-03-02T11:50:30;95924.09;;;8.90;85.11
86138;BME280;76796;49.056;15.810;2024-03-02T11:52:58;95939.34;;;8.77;84.97
86138;BME280;76796;49.056;15.810;2024-03-02T11:55:25;95926.97;;;8.87;84.78
86138;BME280;76796;49.056;15.810;2024-03-02T11:57:59;95930.19;;;8.91;84.43
86138;BME280;76796;49.056;15.810;2024-03-02T12:00:25;95934.34;;;8.84;84.38
86138;BME280;76796;49.056;15.810;2024-03-02T12:03:01;95922.97;;;8.93;84.93
86138;BME280;76796;49.056;15.810;2024-03-02T12:05:34;95925.31;;;8.96;85.11
86138;BME280;76796;49.056;15.810;2024-03-02T12:08:07;95926.84;;;8.98;85.32
86138;BME280;76796;49.056;15.810;2024-03-02T12:10:34;95931.28;;;9.08;84.79
86138;BME280;76796;49.056;15.810;2024-03-02T12:13:01;95931.28;;;8.98;85.12
86138;BME280;76796;49.056;15.810;2024-03-02T12:15:31;95927.38;;;9.02;84.35
86138;BME280;76796;49.056;15.810;2024-03-02T12:17:58;95934.03;;;9.06;83.93
86138;BME280;76796;49.056;15.810;2024-03-02T12:20:25;95929.19;;;9.11;84.57
86138;BME280;76796;49.056;15.810;2024-03-02T12:22:59;95932.38;;;9.15;84.94
86138;BME280;76796;49.056;15.810;2024-03-02T12:25:25;95924.59;;;9.13;84.59
86138;BME280;76796;49.056;15.810;2024-03-02T12:27:54;95924.88;;;9.10;84.91
86138;BME280;76796;49.056;15.810;2024-03-02T12:30:20;95923.75;;;9.13;84.91
86138;BME280;76796;49.056;15.810;2024-03-02T12:32:47;95919.03;;;9.16;85.35
86138;BME280;76796;49.056;15.810;2024-03-02T12:35:13;95920.84;;;9.16;85.46
86138;BME280;76796;49.056;15.810;2024-03-02T12:37:46;95915.69;;;9.14;85.94
86138;BME280;76796;49.056;15.810;2024-03-02T12:40:19;95902.06;;;9.19;86.06
86138;BME280;76796;49.056;15.810;2024-03-02T12:42:46;95918.75;;;9.19;86.13
86138;BME280;76796;49.056;15.810;2024-03-02T12:45:12;95914.03;;;9.13;85.41
86138;BME280;76796;49.056;15.810;2024-03-02T12:47:41;95914.88;;;9.14;85.54
86138;BME280;76796;49.056;15.810;2024-03-02T12:50:09;95901.91;;;9.20;85.46
86138;BME280;76796;49.056;15.810;2024-03-02T12:52:35;95908.47;;;9.16;84.14
86138;BME280;76796;49.056;15.810;2024-03-02T12:55:04;95894.69;;;9.22;84.59
86138;BME280;76796;49.056;15.810;2024-03-02T12:57:39;95898.28;;;9.31;84.74
86138;BME280;76796;49.056;15.810;2024-03-02T13:00:12;95889.25;;;9.33;84.99
86138;BME280;76796;49.056;15.810;2024-03-02T13:02:40;95895.66;;;9.31;84.06
86138;BME280;76796;49.056;15.810;2024-03-02T13:05:07;95884.50;;;9.37;83.54
86138;BME280;76796;49.056;15.810;2024-03-02T13:07:37;95893.94;;;9.40;83.70